createdAt,value
2018-11-21T00:09:02.316Z,67.50
2018-11-21T00:16:25.544Z,67.80
2018-11-21T00:18:53.281Z,67.70
2018-11-21T00:23:49.927Z,67.60
2018-11-21T00:26:17.640Z,67.50
2018-11-21T00:28:45.384Z,67.60
2018-11-21T00:31:13.752Z,67.80
2018-11-21T00:36:09.636Z,67.30
2018-11-21T00:38:37.032Z,67.90
2018-11-21T00:55:51.370Z,67.10
2018-11-21T01:08:10.450Z,66.80
2018-11-21T01:15:33.988Z,67.50
2018-11-21T01:27:53.281Z,67.60
2018-11-21T01:32:49.541Z,67.60
2018-11-21T01:37:45.272Z,67.90
2018-11-21T01:40:13.015Z,67.70
2018-11-21T01:47:36.976Z,67.30
2018-11-21T02:07:18.245Z,66.90
2018-11-21T02:41:46.981Z,67.40
2018-11-21T02:51:39.246Z,67.20
2018-11-21T02:54:07.247Z,67.50
2018-11-21T02:59:20.783Z,67.40
2018-11-21T03:01:48.985Z,67.10
2018-11-21T03:04:17.264Z,67.40
2018-11-21T03:06:44.972Z,67.70
2018-11-21T03:09:13.111Z,67.10
2018-11-21T03:11:40.170Z,67.00
2018-11-21T03:14:07.864Z,66.90
2018-11-21T03:16:36.608Z,67.10
2018-11-21T03:19:06.627Z,67.10
2018-11-21T03:24:02.477Z,67.70
2018-11-21T03:26:30.230Z,67.90
2018-11-21T03:28:58.261Z,68.10
2018-11-21T03:31:25.596Z,67.60
2018-11-21T03:33:57.737Z,67.70
2018-11-21T03:36:21.014Z,68.20
2018-11-21T03:38:48.510Z,68.00
2018-11-21T03:41:16.642Z,68.10
2018-11-21T03:43:44.836Z,68.00
2018-11-21T03:46:13.007Z,68.00
2018-11-21T03:48:41.741Z,67.70
2018-11-21T03:51:09.959Z,68.00
2018-11-21T03:53:37.669Z,67.60
2018-11-21T03:56:05.289Z,67.40
2018-11-21T03:58:32.823Z,67.60
2018-11-21T04:01:00.788Z,67.60
2018-11-21T04:03:28.771Z,67.60
2018-11-21T04:05:56.885Z,67.70
2018-11-21T04:08:24.282Z,67.90
2018-11-21T04:10:51.738Z,67.80
2018-11-21T04:13:19.081Z,67.60
2018-11-21T04:18:13.911Z,67.80
2018-11-21T04:20:41.999Z,67.60
2018-11-21T04:23:10.560Z,67.40
2018-11-21T04:25:38.274Z,67.50
2018-11-21T04:28:05.923Z,67.40
2018-11-21T04:30:33.730Z,67.40
2018-11-21T04:35:28.529Z,67.60
2018-11-21T04:37:56.313Z,67.80
2018-11-21T04:42:51.229Z,68.00
2018-11-21T04:45:19.364Z,68.10
2018-11-21T04:47:47.468Z,67.80
2018-11-21T04:50:15.522Z,68.10
2018-11-21T04:55:10.892Z,68.60
2018-11-21T05:02:35.419Z,68.30
2018-11-21T05:19:48.752Z,68.10
2018-11-21T05:29:40.368Z,67.60
2018-11-21T05:32:08.413Z,67.70
2018-11-21T05:34:36.514Z,67.80
2018-11-21T05:39:32.126Z,68.60
2018-11-21T05:44:31.399Z,67.00
2018-11-21T05:46:55.539Z,67.30
2018-11-21T05:49:23.995Z,67.30
2018-11-21T05:51:52.579Z,67.40
2018-11-21T05:54:20.316Z,67.30
2018-11-21T05:56:48.461Z,67.50
2018-11-21T05:59:16.500Z,67.30
2018-11-21T06:06:40.334Z,67.50
2018-11-21T06:09:10.156Z,67.70
2018-11-21T06:11:38.883Z,67.70
2018-11-21T06:14:06.897Z,67.80
2018-11-21T06:16:34.954Z,67.50
2018-11-21T06:19:02.679Z,67.50
2018-11-21T06:21:30.484Z,67.00
2018-11-21T06:31:21.225Z,66.70
2018-11-21T06:41:12.368Z,67.00
2018-11-21T06:43:40.100Z,67.50
2018-11-21T06:46:08.165Z,67.40
2018-11-21T06:48:35.541Z,67.10
2018-11-21T06:55:58.945Z,68.40
2018-11-21T07:13:14.076Z,68.00
2018-11-21T07:15:42.261Z,68.80
2018-11-21T07:18:09.983Z,68.90
2018-11-21T07:20:37.774Z,68.80
2018-11-21T07:23:05.567Z,68.40
2018-11-21T07:28:01.101Z,67.10
2018-11-21T07:32:56.771Z,67.60
2018-11-21T07:40:20.291Z,67.10
2018-11-21T07:42:49.343Z,66.70
2018-11-21T07:45:17.215Z,69.10
2018-11-21T07:47:45.203Z,67.40
2018-11-21T07:52:44.667Z,66.90
2018-11-21T08:09:13.557Z,65.90
2018-11-21T08:11:59.492Z,65.60
2018-11-21T08:14:49.325Z,65.60
2018-11-21T08:17:35.220Z,65.10
2018-11-21T08:20:31.010Z,65.30
2018-11-21T08:35:58.088Z,64.60
2018-11-21T08:40:53.267Z,64.70
2018-11-21T08:43:20.936Z,65.00
2018-11-21T08:45:49.046Z,64.50
2018-11-21T08:48:18.117Z,64.70
2018-11-21T08:50:46.168Z,67.30
2018-11-21T08:53:13.954Z,65.50
2018-11-21T08:55:41.786Z,64.50
2018-11-21T08:58:09.654Z,64.80
2018-11-21T09:00:37.169Z,64.40
2018-11-21T09:03:05.562Z,64.20
2018-11-21T09:17:52.870Z,64.80
2018-11-21T09:20:21.082Z,64.10
2018-11-21T09:22:49.151Z,62.60
2018-11-21T09:25:16.519Z,62.90
2018-11-21T09:30:17.460Z,63.60
2018-11-21T09:32:46.376Z,63.10
2018-11-21T09:35:15.044Z,63.00
2018-11-21T09:37:43.086Z,62.80
2018-11-21T09:40:12.243Z,62.60
2018-11-21T09:42:41.461Z,62.20
2018-11-21T09:45:11.408Z,61.80
2018-11-21T09:47:38.404Z,62.10
2018-11-21T09:50:08.384Z,62.10
2018-11-21T09:55:04.421Z,61.80
2018-11-21T10:12:44.938Z,62.00
2018-11-21T10:27:29.875Z,61.80
2018-11-21T10:29:57.963Z,61.90
2018-11-21T10:42:17.182Z,62.00
2018-11-21T10:49:40.500Z,61.30
2018-11-21T10:54:36.352Z,61.30
2018-11-21T11:05:00.717Z,60.90
2018-11-21T11:08:02.723Z,60.90
2018-11-21T11:10:52.788Z,60.80
2018-11-21T11:13:38.977Z,61.10
2018-11-21T11:16:26.559Z,61.80
2018-11-21T11:19:26.073Z,61.80
2018-11-21T11:22:28.166Z,61.70
2018-11-21T11:25:13.706Z,61.80
2018-11-21T11:27:59.663Z,61.80
2018-11-21T11:30:52.591Z,61.80
2018-11-21T11:33:38.095Z,61.90
2018-11-21T11:44:39.749Z,61.30
2018-11-21T11:50:16.175Z,61.70
2018-11-21T11:53:15.989Z,61.10
2018-11-21T11:56:01.741Z,61.50
2018-11-21T11:59:07.058Z,61.20
2018-11-21T12:01:55.369Z,61.50
2018-11-21T12:04:31.297Z,61.40
2018-11-21T12:07:16.891Z,61.10
2018-11-21T12:10:06.768Z,61.00
